sensor_id;sensor_type;location;lat;lon;timestamp;P1;durP1;ratioP1;P2;durP2;ratioP2
23270;SDS011;11804;51.118;17.058;2022-07-23T00:02:08;11.18;;;9.98;;
23270;SDS011;11804;51.118;17.058;2022-07-23T00:04:35;12.37;;;9.83;;
23270;SDS011;11804;51.118;17.058;2022-07-23T00:07:03;14.13;;;10.35;;
23270;SDS011;11804;51.118;17.058;2022-07-23T00:09:30;10.75;;;9.65;;
23270;SDS011;11804;51.118;17.058;2022-07-23T00:11:58;12.60;;;9.25;;
23270;SDS011;11804;51.118;17.058;2022-07-23T00:14:26;14.10;;;9.25;;
23270;SDS011;11804;51.118;17.058;2022-07-23T00:16:53;13.05;;;9.40;;
23270;SDS011;11804;51.118;17.058;2022-07-23T00:19:21;10.35;;;9.23;;
23270;SDS011;11804;51.118;17.058;2022-07-23T00:21:48;10.63;;;9.03;;
23270;SDS011;11804;51.118;17.058;2022-07-23T00:24:16;11.78;;;10.10;;
23270;SDS011;11804;51.118;17.058;2022-07-23T00:26:43;11.43;;;9.98;;
23270;SDS011;11804;51.118;17.058;2022-07-23T00:29:11;10.80;;;9.53;;
23270;SDS011;11804;51.118;17.058;2022-07-23T00:31:38;13.93;;;9.93;;
23270;SDS011;11804;51.118;17.058;2022-07-23T00:34:07;10.48;;;9.43;;
23270;SDS011;11804;51.118;17.058;2022-07-23T00:36:34;11.50;;;9.68;;
23270;SDS011;11804;51.118;17.058;2022-07-23T00:39:02;13.03;;;9.60;;
23270;SDS011;11804;51.118;17.058;2022-07-23T00:41:30;16.27;;;9.38;;
23270;SDS011;11804;51.118;17.058;2022-07-23T00:44:21;13.05;;;9.35;;
23270;SDS011;11804;51.118;17.058;2022-07-23T00:46:48;11.28;;;8.68;;
23270;SDS011;11804;51.118;17.058;2022-07-23T00:49:18;12.35;;;9.35;;
23270;SDS011;11804;51.118;17.058;2022-07-23T00:51:47;12.18;;;8.85;;
23270;SDS011;11804;51.118;17.058;2022-07-23T00:54:16;11.10;;;9.10;;
23270;SDS011;11804;51.118;17.058;2022-07-23T00:56:45;9.88;;;8.83;;
23270;SDS011;11804;51.118;17.058;2022-07-23T00:59:13;9.58;;;8.33;;
23270;SDS011;11804;51.118;17.058;2022-07-23T01:01:41;13.18;;;9.48;;
23270;SDS011;11804;51.118;17.058;2022-07-23T01:04:10;10.32;;;8.90;;
23270;SDS011;11804;51.118;17.058;2022-07-23T01:06:38;11.85;;;9.35;;
23270;SDS011;11804;51.118;17.058;2022-07-23T01:09:06;11.73;;;9.03;;
23270;SDS011;11804;51.118;17.058;2022-07-23T01:11:35;10.25;;;9.25;;
23270;SDS011;11804;51.118;17.058;2022-07-23T01:14:10;12.28;;;9.58;;
23270;SDS011;11804;51.118;17.058;2022-07-23T01:16:41;14.43;;;9.40;;
23270;SDS011;11804;51.118;17.058;2022-07-23T01:19:09;12.73;;;9.95;;
23270;SDS011;11804;51.118;17.058;2022-07-23T01:21:38;11.95;;;9.55;;
23270;SDS011;11804;51.118;17.058;2022-07-23T01:24:08;12.43;;;9.33;;
23270;SDS011;11804;51.118;17.058;2022-07-23T01:26:37;12.10;;;9.63;;
23270;SDS011;11804;51.118;17.058;2022-07-23T01:29:06;9.80;;;8.80;;
23270;SDS011;11804;51.118;17.058;2022-07-23T01:31:34;12.45;;;8.90;;
23270;SDS011;11804;51.118;17.058;2022-07-23T01:34:01;9.20;;;8.30;;
23270;SDS011;11804;51.118;17.058;2022-07-23T01:36:30;12.00;;;9.88;;
23270;SDS011;11804;51.118;17.058;2022-07-23T01:39:05;11.25;;;10.05;;
23270;SDS011;11804;51.118;17.058;2022-07-23T01:41:34;11.12;;;9.80;;
23270;SDS011;11804;51.118;17.058;2022-07-23T01:44:01;10.75;;;9.68;;
23270;SDS011;11804;51.118;17.058;2022-07-23T01:46:29;13.98;;;9.75;;
23270;SDS011;11804;51.118;17.058;2022-07-23T01:48:57;11.35;;;10.13;;
23270;SDS011;11804;51.118;17.058;2022-07-23T01:51:24;12.03;;;10.13;;
23270;SDS011;11804;51.118;17.058;2022-07-23T01:53:52;15.35;;;10.38;;
23270;SDS011;11804;51.118;17.058;2022-07-23T01:56:19;13.28;;;9.58;;
23270;SDS011;11804;51.118;17.058;2022-07-23T01:58:47;13.93;;;9.80;;
23270;SDS011;11804;51.118;17.058;2022-07-23T02:01:15;14.60;;;10.40;;
23270;SDS011;11804;51.118;17.058;2022-07-23T02:03:44;12.50;;;10.10;;
23270;SDS011;11804;51.118;17.058;2022-07-23T02:06:11;13.40;;;10.58;;
23270;SDS011;11804;51.118;17.058;2022-07-23T02:08:39;13.90;;;10.45;;
23270;SDS011;11804;51.118;17.058;2022-07-23T02:11:07;11.18;;;9.70;;
23270;SDS011;11804;51.118;17.058;2022-07-23T02:13:34;14.93;;;11.00;;
23270;SDS011;11804;51.118;17.058;2022-07-23T02:16:02;12.58;;;10.15;;
23270;SDS011;11804;51.118;17.058;2022-07-23T02:18:30;12.73;;;11.38;;
23270;SDS011;11804;51.118;17.058;2022-07-23T02:20:57;13.70;;;11.70;;
23270;SDS011;11804;51.118;17.058;2022-07-23T02:23:25;14.07;;;12.68;;
23270;SDS011;11804;51.118;17.058;2022-07-23T02:25:52;14.63;;;12.47;;
23270;SDS011;11804;51.118;17.058;2022-07-23T02:28:20;13.85;;;12.20;;
23270;SDS011;11804;51.118;17.058;2022-07-23T02:30:48;13.55;;;12.23;;
23270;SDS011;11804;51.118;17.058;2022-07-23T02:33:15;13.10;;;11.80;;
23270;SDS011;11804;51.118;17.058;2022-07-23T02:35:45;16.10;;;12.37;;
23270;SDS011;11804;51.118;17.058;2022-07-23T02:38:12;14.13;;;12.55;;
23270;SDS011;11804;51.118;17.058;2022-07-23T02:40:40;13.62;;;12.20;;
23270;SDS011;11804;51.118;17.058;2022-07-23T02:43:07;16.12;;;12.85;;
23270;SDS011;11804;51.118;17.058;2022-07-23T02:45:35;14.00;;;12.50;;
23270;SDS011;11804;51.118;17.058;2022-07-23T02:48:03;15.43;;;12.82;;
23270;SDS011;11804;51.118;17.058;2022-07-23T02:50:32;13.58;;;12.20;;
23270;SDS011;11804;51.118;17.058;2022-07-23T02:52:59;13.00;;;11.60;;
23270;SDS011;11804;51.118;17.058;2022-07-23T02:55:27;19.55;;;12.15;;
23270;SDS011;11804;51.118;17.058;2022-07-23T02:57:55;14.78;;;11.70;;
23270;SDS011;11804;51.118;17.058;2022-07-23T03:00:22;13.60;;;12.20;;
23270;SDS011;11804;51.118;17.058;2022-07-23T03:02:50;15.08;;;12.70;;
23270;SDS011;11804;51.118;17.058;2022-07-23T03:05:18;13.83;;;12.43;;
23270;SDS011;11804;51.118;17.058;2022-07-23T03:07:45;19.25;;;12.35;;
23270;SDS011;11804;51.118;17.058;2022-07-23T03:10:13;14.20;;;12.25;;
23270;SDS011;11804;51.118;17.058;2022-07-23T03:12:40;14.45;;;11.75;;
23270;SDS011;11804;51.118;17.058;2022-07-23T03:15:08;14.03;;;12.05;;
23270;SDS011;11804;51.118;17.058;2022-07-23T03:17:36;18.52;;;12.37;;
23270;SDS011;11804;51.118;17.058;2022-07-23T03:20:04;17.20;;;12.43;;
23270;SDS011;11804;51.118;17.058;2022-07-23T03:22:33;13.80;;;12.25;;
23270;SDS011;11804;51.118;17.058;2022-07-23T03:25:00;16.62;;;11.90;;
23270;SDS011;11804;51.118;17.058;2022-07-23T03:27:28;16.30;;;11.57;;
23270;SDS011;11804;51.118;17.058;2022-07-23T03:29:57;14.73;;;12.37;;
23270;SDS011;11804;51.118;17.058;2022-07-23T03:32:26;12.82;;;11.05;;
23270;SDS011;11804;51.118;17.058;2022-07-23T03:34:53;17.12;;;11.93;;
23270;SDS011;11804;51.118;17.058;2022-07-23T03:37:21;12.33;;;11.03;;
23270;SDS011;11804;51.118;17.058;2022-07-23T03:39:48;14.87;;;11.43;;
23270;SDS011;11804;51.118;17.058;2022-07-23T03:42:16;12.88;;;10.60;;
23270;SDS011;11804;51.118;17.058;2022-07-23T03:44:44;15.40;;;10.98;;
23270;SDS011;11804;51.118;17.058;2022-07-23T03:47:11;14.43;;;11.63;;
23270;SDS011;11804;51.118;17.058;2022-07-23T03:49:39;17.00;;;11.20;;
23270;SDS011;11804;51.118;17.058;2022-07-23T03:52:06;13.78;;;10.85;;
23270;SDS011;11804;51.118;17.058;2022-07-23T03:54:34;11.18;;;9.83;;
23270;SDS011;11804;51.118;17.058;2022-07-23T03:57:01;17.17;;;9.18;;
23270;SDS011;11804;51.118;17.058;2022-07-23T03:59:29;11.10;;;9.80;;
23270;SDS011;11804;51.118;17.058;2022-07-23T04:01:56;12.00;;;10.63;;
23270;SDS011;11804;51.118;17.058;2022-07-23T04:04:24;11.40;;;10.28;;
23270;SDS011;11804;51.118;17.058;2022-07-23T04:06:52;13.95;;;10.82;;
23270;SDS011;11804;51.118;17.058;2022-07-23T04:09:19;16.15;;;10.70;;
23270;SDS011;11804;51.118;17.058;2022-07-23T04:11:47;14.28;;;10.70;;
23270;SDS011;11804;51.118;17.058;2022-07-23T04:14:15;11.20;;;10.03;;
23270;SDS011;11804;51.118;17.058;2022-07-23T04:16:43;12.47;;;9.90;;
23270;SDS011;11804;51.118;17.058;2022-07-23T04:19:11;11.10;;;8.93;;
23270;SDS011;11804;51.118;17.058;2022-07-23T04:21:38;10.15;;;9.13;;
23270;SDS011;11804;51.118;17.058;2022-07-23T04:24:06;11.22;;;9.63;;
23270;SDS011;11804;51.118;17.058;2022-07-23T04:26:34;10.50;;;9.40;;
23270;SDS011;11804;51.118;17.058;2022-07-23T04:29:01;13.68;;;9.38;;
23270;SDS011;11804;51.118;17.058;2022-07-23T04:31:29;11.75;;;10.10;;
23270;SDS011;11804;51.118;17.058;2022-07-23T04:33:57;12.25;;;9.10;;
23270;SDS011;11804;51.118;17.058;2022-07-23T04:36:24;11.45;;;9.98;;
23270;SDS011;11804;51.118;17.058;2022-07-23T04:38:52;14.98;;;10.30;;
23270;SDS011;11804;51.118;17.058;2022-07-23T04:41:20;11.22;;;9.60;;
23270;SDS011;11804;51.118;17.058;2022-07-23T04:43:47;13.15;;;10.45;;
23270;SDS011;11804;51.118;17.058;2022-07-23T04:46:15;10.82;;;9.73;;
23270;SDS011;11804;51.118;17.058;2022-07-23T04:48:42;11.68;;;10.23;;
23270;SDS011;11804;51.118;17.058;2022-07-23T04:51:10;15.50;;;10.48;;
23270;SDS011;11804;51.118;17.058;2022-07-23T04:53:38;12.00;;;9.78;;
23270;SDS011;11804;51.118;17.058;2022-07-23T04:56:06;11.40;;;10.05;;
23270;SDS011;11804;51.118;17.058;2022-07-23T04:58:34;11.10;;;9.83;;
23270;SDS011;11804;51.118;17.058;2022-07-23T05:01:02;11.40;;;10.18;;
23270;SDS011;11804;51.118;17.058;2022-07-23T05:03:30;11.70;;;10.58;;
23270;SDS011;11804;51.118;17.058;2022-07-23T05:05:58;11.08;;;9.88;;
23270;SDS011;11804;51.118;17.058;2022-07-23T05:08:25;12.73;;;10.08;;
23270;SDS011;11804;51.118;17.058;2022-07-23T05:10:53;12.15;;;9.93;;
23270;SDS011;11804;51.118;17.058;2022-07-23T05:13:21;10.38;;;9.33;;
23270;SDS011;11804;51.118;17.058;2022-07-23T05:15:49;11.05;;;9.75;;
23270;SDS011;11804;51.118;17.058;2022-07-23T05:18:16;10.30;;;9.20;;
23270;SDS011;11804;51.118;17.058;2022-07-23T05:20:44;11.25;;;9.60;;
23270;SDS011;11804;51.118;17.058;2022-07-23T05:23:12;10.72;;;9.63;;
23270;SDS011;11804;51.118;17.058;2022-07-23T05:25:39;11.60;;;9.43;;
23270;SDS011;11804;51.118;17.058;2022-07-23T05:28:07;10.15;;;9.13;;
23270;SDS011;11804;51.118;17.058;2022-07-23T05:30:35;10.32;;;9.33;;
23270;SDS011;11804;51.118;17.058;2022-07-23T05:33:02;10.88;;;9.45;;
23270;SDS011;11804;51.118;17.058;2022-07-23T05:35:31;10.60;;;9.60;;
23270;SDS011;11804;51.118;17.058;2022-07-23T05:37:59;11.88;;;10.08;;
23270;SDS011;11804;51.118;17.058;2022-07-23T05:40:26;11.25;;;9.50;;
23270;SDS011;11804;51.118;17.058;2022-07-23T05:42:55;10.63;;;9.53;;
23270;SDS011;11804;51.118;17.058;2022-07-23T05:45:22;11.68;;;9.88;;
23270;SDS011;11804;51.118;17.058;2022-07-23T05:47:50;15.63;;;10.20;;
23270;SDS011;11804;51.118;17.058;2022-07-23T05:50:17;12.40;;;10.53;;
23270;SDS011;11804;51.118;17.058;2022-07-23T05:52:45;13.15;;;10.30;;
23270;SDS011;11804;51.118;17.058;2022-07-23T05:55:13;13.45;;;9.55;;
23270;SDS011;11804;51.118;17.058;2022-07-23T05:57:41;17.05;;;10.65;;
23270;SDS011;11804;51.118;17.058;2022-07-23T06:00:10;11.70;;;10.60;;
23270;SDS011;11804;51.118;17.058;2022-07-23T06:02:38;14.28;;;10.30;;
23270;SDS011;11804;51.118;17.058;2022-07-23T06:05:06;10.40;;;9.40;;
23270;SDS011;11804;51.118;17.058;2022-07-23T06:07:35;11.10;;;10.08;;
23270;SDS011;11804;51.118;17.058;2022-07-23T06:10:03;12.58;;;9.70;;
23270;SDS011;11804;51.118;17.058;2022-07-23T06:12:31;15.83;;;9.68;;
23270;SDS011;11804;51.118;17.058;2022-07-23T06:15:00;16.25;;;10.20;;
23270;SDS011;11804;51.118;17.058;2022-07-23T06:17:29;11.43;;;9.28;;
23270;SDS011;11804;51.118;17.058;2022-07-23T06:19:56;13.03;;;9.85;;
23270;SDS011;11804;51.118;17.058;2022-07-23T06:22:24;11.35;;;9.78;;
23270;SDS011;11804;51.118;17.058;2022-07-23T06:24:53;13.18;;;10.05;;
23270;SDS011;11804;51.118;17.058;2022-07-23T06:27:21;13.30;;;10.23;;
23270;SDS011;11804;51.118;17.058;2022-07-23T06:29:49;11.97;;;10.08;;
23270;SDS011;11804;51.118;17.058;2022-07-23T06:32:16;11.75;;;9.78;;
23270;SDS011;11804;51.118;17.058;2022-07-23T06:34:44;13.65;;;10.55;;
23270;SDS011;11804;51.118;17.058;2022-07-23T06:37:12;11.63;;;9.70;;
23270;SDS011;11804;51.118;17.058;2022-07-23T06:39:39;10.95;;;9.50;;
23270;SDS011;11804;51.118;17.058;2022-07-23T06:42:07;12.60;;;9.43;;
23270;SDS011;11804;51.118;17.058;2022-07-23T06:44:36;11.35;;;9.08;;
23270;SDS011;11804;51.118;17.058;2022-07-23T06:47:03;10.75;;;9.50;;
23270;SDS011;11804;51.118;17.058;2022-07-23T06:49:31;12.07;;;9.38;;
23270;SDS011;11804;51.118;17.058;2022-07-23T06:51:58;11.00;;;9.30;;
23270;SDS011;11804;51.118;17.058;2022-07-23T06:54:26;15.18;;;10.58;;
23270;SDS011;11804;51.118;17.058;2022-07-23T06:56:54;12.00;;;9.73;;
23270;SDS011;11804;51.118;17.058;2022-07-23T06:59:21;11.20;;;9.63;;
23270;SDS011;11804;51.118;17.058;2022-07-23T07:01:49;13.88;;;9.60;;
23270;SDS011;11804;51.118;17.058;2022-07-23T07:04:17;11.60;;;9.85;;
23270;SDS011;11804;51.118;17.058;2022-07-23T07:06:44;10.43;;;8.98;;
23270;SDS011;11804;51.118;17.058;2022-07-23T07:09:12;10.35;;;8.65;;
23270;SDS011;11804;51.118;17.058;2022-07-23T07:11:39;13.45;;;9.03;;
23270;SDS011;11804;51.118;17.058;2022-07-23T07:14:07;13.32;;;9.78;;
23270;SDS011;11804;51.118;17.058;2022-07-23T07:16:35;10.85;;;9.78;;
23270;SDS011;11804;51.118;17.058;2022-07-23T07:19:02;12.60;;;10.08;;
23270;SDS011;11804;51.118;17.058;2022-07-23T07:21:30;12.78;;;9.80;;
23270;SDS011;11804;51.118;17.058;2022-07-23T07:23:57;12.10;;;10.25;;
23270;SDS011;11804;51.118;17.058;2022-07-23T07:26:25;13.98;;;10.20;;
23270;SDS011;11804;51.118;17.058;2022-07-23T07:28:53;10.82;;;9.83;;
23270;SDS011;11804;51.118;17.058;2022-07-23T07:31:21;10.63;;;9.53;;
23270;SDS011;11804;51.118;17.058;2022-07-23T07:33:48;12.35;;;9.85;;
23270;SDS011;11804;51.118;17.058;2022-07-23T07:36:16;14.58;;;9.68;;
23270;SDS011;11804;51.118;17.058;2022-07-23T07:38:43;11.75;;;9.43;;
23270;SDS011;11804;51.118;17.058;2022-07-23T07:41:11;14.83;;;9.70;;
23270;SDS011;11804;51.118;17.058;2022-07-23T07:43:39;12.30;;;10.13;;
23270;SDS011;11804;51.118;17.058;2022-07-23T07:46:06;12.53;;;10.13;;
23270;SDS011;11804;51.118;17.058;2022-07-23T07:48:36;13.25;;;10.28;;
23270;SDS011;11804;51.118;17.058;2022-07-23T07:51:04;11.97;;;10.20;;
23270;SDS011;11804;51.118;17.058;2022-07-23T07:53:32;12.90;;;9.63;;
23270;SDS011;11804;51.118;17.058;2022-07-23T07:56:00;9.85;;;8.68;;
23270;SDS011;11804;51.118;17.058;2022-07-23T07:58:27;12.43;;;9.15;;
23270;SDS011;11804;51.118;17.058;2022-07-23T08:00:55;11.50;;;10.10;;
23270;SDS011;11804;51.118;17.058;2022-07-23T08:03:23;11.48;;;9.48;;
23270;SDS011;11804;51.118;17.058;2022-07-23T08:05:50;10.70;;;9.60;;
23270;SDS011;11804;51.118;17.058;2022-07-23T08:08:18;11.48;;;9.58;;
23270;SDS011;11804;51.118;17.058;2022-07-23T08:10:46;11.05;;;9.53;;
23270;SDS011;11804;51.118;17.058;2022-07-23T08:13:14;11.68;;;9.95;;
23270;SDS011;11804;51.118;17.058;2022-07-23T08:15:43;12.95;;;9.95;;
23270;SDS011;11804;51.118;17.058;2022-07-23T08:18:11;11.60;;;10.40;;
23270;SDS011;11804;51.118;17.058;2022-07-23T08:20:38;11.50;;;10.30;;
23270;SDS011;11804;51.118;17.058;2022-07-23T08:23:07;11.63;;;9.75;;
23270;SDS011;11804;51.118;17.058;2022-07-23T08:25:41;12.75;;;10.30;;
23270;SDS011;11804;51.118;17.058;2022-07-23T08:28:09;11.08;;;9.95;;
23270;SDS011;11804;51.118;17.058;2022-07-23T08:30:39;13.60;;;10.23;;
23270;SDS011;11804;51.118;17.058;2022-07-23T08:33:09;13.90;;;10.50;;
23270;SDS011;11804;51.118;17.058;2022-07-23T08:35:41;12.03;;;9.28;;
23270;SDS011;11804;51.118;17.058;2022-07-23T08:38:13;11.45;;;10.13;;
23270;SDS011;11804;51.118;17.058;2022-07-23T08:40:47;14.38;;;10.38;;
23270;SDS011;11804;51.118;17.058;2022-07-23T08:43:12;15.75;;;10.40;;
23270;SDS011;11804;51.118;17.058;2022-07-23T08:45:43;12.30;;;11.08;;
23270;SDS011;11804;51.118;17.058;2022-07-23T08:48:15;13.93;;;10.15;;
23270;SDS011;11804;51.118;17.058;2022-07-23T08:50:53;12.60;;;11.40;;
23270;SDS011;11804;51.118;17.058;2022-07-23T08:53:23;13.28;;;10.38;;
23270;SDS011;11804;51.118;17.058;2022-07-23T08:55:53;14.05;;;10.35;;
23270;SDS011;11804;51.118;17.058;2022-07-23T08:58:24;15.80;;;10.82;;
23270;SDS011;11804;51.118;17.058;2022-07-23T09:00:52;12.20;;;10.28;;
23270;SDS011;11804;51.118;17.058;2022-07-23T09:03:22;14.80;;;10.10;;
23270;SDS011;11804;51.118;17.058;2022-07-23T09:05:52;13.08;;;10.45;;
23270;SDS011;11804;51.118;17.058;2022-07-23T09:08:23;11.68;;;10.43;;
23270;SDS011;11804;51.118;17.058;2022-07-23T09:10:57;20.30;;;10.68;;
23270;SDS011;11804;51.118;17.058;2022-07-23T09:13:36;11.43;;;10.32;;
23270;SDS011;11804;51.118;17.058;2022-07-23T09:16:07;10.32;;;9.28;;
23270;SDS011;11804;51.118;17.058;2022-07-23T09:18:47;12.43;;;9.40;;
23270;SDS011;11804;51.118;17.058;2022-07-23T09:26:35;11.15;;;10.23;;
23270;SDS011;11804;51.118;17.058;2022-07-23T09:29:08;15.03;;;10.68;;
23270;SDS011;11804;51.118;17.058;2022-07-23T09:34:23;14.13;;;10.80;;
23270;SDS011;11804;51.118;17.058;2022-07-23T09:37:12;12.85;;;10.80;;
23270;SDS011;11804;51.118;17.058;2022-07-23T09:39:41;14.07;;;10.45;;
23270;SDS011;11804;51.118;17.058;2022-07-23T09:42:15;11.57;;;9.98;;
23270;SDS011;11804;51.118;17.058;2022-07-23T09:44:47;13.22;;;10.10;;
23270;SDS011;11804;51.118;17.058;2022-07-23T09:47:17;12.65;;;10.32;;
23270;SDS011;11804;51.118;17.058;2022-07-23T09:50:09;13.20;;;9.98;;
23270;SDS011;11804;51.118;17.058;2022-07-23T09:52:45;13.93;;;10.03;;
23270;SDS011;11804;51.118;17.058;2022-07-23T09:55:14;15.78;;;10.65;;
23270;SDS011;11804;51.118;17.058;2022-07-23T09:57:44;12.88;;;10.53;;
23270;SDS011;11804;51.118;17.058;2022-07-23T10:00:14;12.35;;;10.18;;
23270;SDS011;11804;51.118;17.058;2022-07-23T10:02:43;13.62;;;10.75;;
23270;SDS011;11804;51.118;17.058;2022-07-23T10:05:13;13.65;;;10.75;;
23270;SDS011;11804;51.118;17.058;2022-07-23T10:07:42;20.90;;;10.35;;
23270;SDS011;11804;51.118;17.058;2022-07-23T10:10:10;20.65;;;9.90;;
23270;SDS011;11804;51.118;17.058;2022-07-23T10:12:39;13.65;;;10.08;;
23270;SDS011;11804;51.118;17.058;2022-07-23T10:15:19;17.52;;;9.83;;
23270;SDS011;11804;51.118;17.058;2022-07-23T10:17:48;15.78;;;11.05;;
23270;SDS011;11804;51.118;17.058;2022-07-23T10:20:15;13.65;;;9.83;;
23270;SDS011;11804;51.118;17.058;2022-07-23T10:36:32;11.30;;;8.15;;
23270;SDS011;11804;51.118;17.058;2022-07-23T10:39:04;11.48;;;9.28;;
23270;SDS011;11804;51.118;17.058;2022-07-23T10:41:34;9.80;;;8.78;;
23270;SDS011;11804;51.118;17.058;2022-07-23T10:44:16;10.93;;;9.30;;
23270;SDS011;11804;51.118;17.058;2022-07-23T10:47:02;10.32;;;9.15;;
23270;SDS011;11804;51.118;17.058;2022-07-23T10:49:31;12.85;;;9.40;;
23270;SDS011;11804;51.118;17.058;2022-07-23T10:54:49;14.60;;;11.25;;
23270;SDS011;11804;51.118;17.058;2022-07-23T10:57:25;14.63;;;10.13;;
23270;SDS011;11804;51.118;17.058;2022-07-23T11:02:34;13.75;;;10.98;;
23270;SDS011;11804;51.118;17.058;2022-07-23T11:05:05;17.37;;;11.95;;
23270;SDS011;11804;51.118;17.058;2022-07-23T11:08:10;13.40;;;11.12;;
23270;SDS011;11804;51.118;17.058;2022-07-23T11:10:32;14.43;;;12.10;;
23270;SDS011;11804;51.118;17.058;2022-07-23T11:32:06;15.88;;;14.23;;
23270;SDS011;11804;51.118;17.058;2022-07-23T11:34:43;16.35;;;13.40;;
23270;SDS011;11804;51.118;17.058;2022-07-23T11:40:06;16.42;;;13.38;;
23270;SDS011;11804;51.118;17.058;2022-07-23T11:42:38;16.48;;;14.87;;
23270;SDS011;11804;51.118;17.058;2022-07-23T11:45:08;16.32;;;14.05;;
23270;SDS011;11804;51.118;17.058;2022-07-23T11:47:39;21.97;;;15.13;;
23270;SDS011;11804;51.118;17.058;2022-07-23T11:50:07;18.05;;;13.83;;
23270;SDS011;11804;51.118;17.058;2022-07-23T11:52:35;15.43;;;13.93;;
23270;SDS011;11804;51.118;17.058;2022-07-23T11:55:04;18.17;;;14.65;;
23270;SDS011;11804;51.118;17.058;2022-07-23T11:57:35;15.72;;;12.40;;
23270;SDS011;11804;51.118;17.058;2022-07-23T12:00:12;16.10;;;13.00;;
23270;SDS011;11804;51.118;17.058;2022-07-23T12:02:58;15.90;;;13.08;;
23270;SDS011;11804;51.118;17.058;2022-07-23T12:05:28;17.12;;;12.25;;
23270;SDS011;11804;51.118;17.058;2022-07-23T12:08:02;12.70;;;11.40;;
23270;SDS011;11804;51.118;17.058;2022-07-23T12:13:05;15.53;;;14.03;;
23270;SDS011;11804;51.118;17.058;2022-07-23T12:15:37;14.73;;;13.28;;
23270;SDS011;11804;51.118;17.058;2022-07-23T12:18:14;18.52;;;13.08;;
23270;SDS011;11804;51.118;17.058;2022-07-23T12:20:46;13.70;;;12.30;;
23270;SDS011;11804;51.118;17.058;2022-07-23T12:23:18;14.50;;;13.10;;
23270;SDS011;11804;51.118;17.058;2022-07-23T12:25:49;14.33;;;12.80;;
23270;SDS011;11804;51.118;17.058;2022-07-23T12:28:18;14.93;;;13.30;;
23270;SDS011;11804;51.118;17.058;2022-07-23T12:30:51;13.90;;;12.53;;
23270;SDS011;11804;51.118;17.058;2022-07-23T12:33:27;14.13;;;11.75;;
23270;SDS011;11804;51.118;17.058;2022-07-23T12:35:58;12.58;;;11.28;;
23270;SDS011;11804;51.118;17.058;2022-07-23T12:38:37;13.05;;;11.75;;
23270;SDS011;11804;51.118;17.058;2022-07-23T12:41:06;17.42;;;11.97;;
23270;SDS011;11804;51.118;17.058;2022-07-23T12:43:36;12.80;;;11.45;;
23270;SDS011;11804;51.118;17.058;2022-07-23T12:46:04;11.70;;;10.48;;
23270;SDS011;11804;51.118;17.058;2022-07-23T12:48:34;14.15;;;10.90;;
23270;SDS011;11804;51.118;17.058;2022-07-23T12:51:03;12.47;;;11.20;;
23270;SDS011;11804;51.118;17.058;2022-07-23T12:53:43;14.28;;;10.58;;
23270;SDS011;11804;51.118;17.058;2022-07-23T12:56:13;15.30;;;11.48;;
23270;SDS011;11804;51.118;17.058;2022-07-23T12:58:54;14.68;;;10.68;;
23270;SDS011;11804;51.118;17.058;2022-07-23T13:01:24;13.35;;;11.03;;
23270;SDS011;11804;51.118;17.058;2022-07-23T13:03:57;12.95;;;11.65;;
23270;SDS011;11804;51.118;17.058;2022-07-23T13:06:27;15.60;;;11.60;;
23270;SDS011;11804;51.118;17.058;2022-07-23T13:08:56;13.28;;;10.45;;
23270;SDS011;11804;51.118;17.058;2022-07-23T13:11:25;12.40;;;11.15;;
23270;SDS011;11804;51.118;17.058;2022-07-23T13:13:53;12.23;;;11.03;;
23270;SDS011;11804;51.118;17.058;2022-07-23T13:16:21;13.50;;;10.82;;
23270;SDS011;11804;51.118;17.058;2022-07-23T13:18:49;12.73;;;11.40;;
23270;SDS011;11804;51.118;17.058;2022-07-23T13:21:16;15.08;;;11.80;;
23270;SDS011;11804;51.118;17.058;2022-07-23T13:23:44;14.07;;;12.58;;
23270;SDS011;11804;51.118;17.058;2022-07-23T13:26:11;15.03;;;12.18;;
23270;SDS011;11804;51.118;17.058;2022-07-23T13:28:39;16.27;;;11.90;;
23270;SDS011;11804;51.118;17.058;2022-07-23T13:31:07;15.32;;;11.93;;
23270;SDS011;11804;51.118;17.058;2022-07-23T13:33:36;20.85;;;12.58;;
23270;SDS011;11804;51.118;17.058;2022-07-23T13:36:04;15.95;;;11.80;;
23270;SDS011;11804;51.118;17.058;2022-07-23T13:38:32;14.87;;;11.28;;
23270;SDS011;11804;51.118;17.058;2022-07-23T13:41:00;12.95;;;11.68;;
23270;SDS011;11804;51.118;17.058;2022-07-23T13:43:29;15.98;;;12.18;;
23270;SDS011;11804;51.118;17.058;2022-07-23T13:45:56;13.15;;;11.73;;
23270;SDS011;11804;51.118;17.058;2022-07-23T13:48:24;13.38;;;12.13;;
23270;SDS011;11804;51.118;17.058;2022-07-23T13:50:52;12.60;;;11.48;;
23270;SDS011;11804;51.118;17.058;2022-07-23T13:53:20;15.48;;;11.78;;
23270;SDS011;11804;51.118;17.058;2022-07-23T13:55:51;13.20;;;11.73;;
23270;SDS011;11804;51.118;17.058;2022-07-23T13:58:20;12.98;;;11.65;;
23270;SDS011;11804;51.118;17.058;2022-07-23T14:00:49;14.85;;;11.65;;
23270;SDS011;11804;51.118;17.058;2022-07-23T14:03:19;13.03;;;11.43;;
23270;SDS011;11804;51.118;17.058;2022-07-23T14:05:52;16.25;;;11.85;;
23270;SDS011;11804;51.118;17.058;2022-07-23T14:08:20;14.53;;;11.85;;
23270;SDS011;11804;51.118;17.058;2022-07-23T14:10:47;12.93;;;11.60;;
23270;SDS011;11804;51.118;17.058;2022-07-23T14:13:15;14.10;;;12.05;;
23270;SDS011;11804;51.118;17.058;2022-07-23T14:15:43;12.98;;;11.78;;
23270;SDS011;11804;51.118;17.058;2022-07-23T14:18:12;14.00;;;11.80;;
23270;SDS011;11804;51.118;17.058;2022-07-23T14:20:39;16.07;;;12.10;;
23270;SDS011;11804;51.118;17.058;2022-07-23T14:23:07;16.23;;;11.93;;
23270;SDS011;11804;51.118;17.058;2022-07-23T14:25:35;15.68;;;11.75;;
23270;SDS011;11804;51.118;17.058;2022-07-23T14:28:02;12.95;;;11.60;;
23270;SDS011;11804;51.118;17.058;2022-07-23T14:30:30;14.35;;;12.28;;
23270;SDS011;11804;51.118;17.058;2022-07-23T14:32:58;13.18;;;11.78;;
23270;SDS011;11804;51.118;17.058;2022-07-23T14:35:27;13.75;;;12.13;;
23270;SDS011;11804;51.118;17.058;2022-07-23T14:37:54;13.83;;;11.80;;
23270;SDS011;11804;51.118;17.058;2022-07-23T14:40:22;14.18;;;12.15;;
23270;SDS011;11804;51.118;17.058;2022-07-23T14:42:50;15.10;;;11.48;;
23270;SDS011;11804;51.118;17.058;2022-07-23T14:45:25;13.62;;;12.23;;
23270;SDS011;11804;51.118;17.058;2022-07-23T14:47:55;13.40;;;11.97;;
23270;SDS011;11804;51.118;17.058;2022-07-23T14:50:23;15.03;;;12.33;;
23270;SDS011;11804;51.118;17.058;2022-07-23T14:52:51;19.00;;;12.63;;
23270;SDS011;11804;51.118;17.058;2022-07-23T14:55:19;15.03;;;11.70;;
23270;SDS011;11804;51.118;17.058;2022-07-23T14:57:47;15.65;;;13.00;;
23270;SDS011;11804;51.118;17.058;2022-07-23T15:00:19;13.98;;;12.53;;
23270;SDS011;11804;51.118;17.058;2022-07-23T15:02:47;17.27;;;12.50;;
23270;SDS011;11804;51.118;17.058;2022-07-23T15:05:14;18.50;;;12.58;;
23270;SDS011;11804;51.118;17.058;2022-07-23T15:07:42;16.20;;;11.93;;
23270;SDS011;11804;51.118;17.058;2022-07-23T15:10:10;13.90;;;12.40;;
23270;SDS011;11804;51.118;17.058;2022-07-23T15:12:38;16.73;;;12.78;;
23270;SDS011;11804;51.118;17.058;2022-07-23T15:15:05;14.35;;;12.55;;
23270;SDS011;11804;51.118;17.058;2022-07-23T15:17:33;13.55;;;12.00;;